createdAt,value
2023-04-25T00:00:51.275Z,0.00
2023-04-25T00:01:51.246Z,0.00
2023-04-25T00:02:51.479Z,0.00
2023-04-25T00:03:51.718Z,0.00
2023-04-25T00:04:57.701Z,0.00
2023-04-25T00:05:51.242Z,0.00
2023-04-25T00:06:51.304Z,0.00
2023-04-25T00:07:51.183Z,0.00
2023-04-25T00:08:51.232Z,0.00
2023-04-25T00:09:57.485Z,0.00
2023-04-25T00:10:51.224Z,0.00
2023-04-25T00:11:51.162Z,0.00
2023-04-25T00:12:51.602Z,0.00
2023-04-25T00:13:51.231Z,0.00
2023-04-25T00:14:57.356Z,0.00
2023-04-25T00:15:51.136Z,0.00
2023-04-25T00:16:51.076Z,0.00
2023-04-25T00:17:51.069Z,0.00
2023-04-25T00:18:51.073Z,0.00
2023-04-25T00:19:51.027Z,0.00
2023-04-25T00:20:57.312Z,0.00
2023-04-25T00:21:51.102Z,0.00
2023-04-25T00:22:50.996Z,0.00
2023-04-25T00:23:51.212Z,0.00
2023-04-25T00:24:50.968Z,0.00
2023-04-25T00:25:50.992Z,0.00
2023-04-25T00:26:57.197Z,0.00
2023-04-25T00:27:50.978Z,0.00
2023-04-25T00:28:50.911Z,0.00
2023-04-25T00:29:50.920Z,0.00
2023-04-25T00:30:51.197Z,0.00
2023-04-25T00:31:50.933Z,0.00
2023-04-25T00:32:57.162Z,0.00
2023-04-25T00:33:51.046Z,0.00
2023-04-25T00:34:50.885Z,0.00
2023-04-25T00:35:50.860Z,0.00
2023-04-25T00:36:50.893Z,0.00
2023-04-25T00:37:57.064Z,0.00
2023-04-25T00:38:50.781Z,0.00
2023-04-25T00:39:50.791Z,0.00
2023-04-25T00:40:50.765Z,0.00
2023-04-25T00:41:50.785Z,0.00
2023-04-25T00:42:50.746Z,0.00
2023-04-25T00:43:56.958Z,0.00
2023-04-25T00:44:51.159Z,0.00
2023-04-25T00:45:50.705Z,0.00
2023-04-25T00:46:50.828Z,0.00
2023-04-25T00:47:50.644Z,0.00
2023-04-25T00:48:56.892Z,0.00
2023-04-25T00:49:50.656Z,0.00
2023-04-25T00:50:50.666Z,0.00
2023-04-25T00:51:50.651Z,0.00
2023-04-25T00:52:50.577Z,0.00
2023-04-25T00:53:51.005Z,0.00
2023-04-25T00:54:56.829Z,0.00
2023-04-25T00:55:50.515Z,0.00
2023-04-25T00:56:50.541Z,0.00
2023-04-25T00:57:50.619Z,0.00
2023-04-25T00:58:50.537Z,0.00
2023-04-25T00:59:50.540Z,0.00
2023-04-25T01:00:56.740Z,0.00
2023-04-25T01:01:50.564Z,0.00
2023-04-25T01:02:50.598Z,0.00
2023-04-25T01:03:50.742Z,0.00
2023-04-25T01:04:50.431Z,0.00
2023-04-25T01:05:50.401Z,0.00
2023-04-25T01:06:56.658Z,0.00
2023-04-25T01:07:50.431Z,0.00
2023-04-25T01:08:50.383Z,0.00
2023-04-25T01:09:50.398Z,0.00
2023-04-25T01:10:50.393Z,0.00
2023-04-25T01:11:50.365Z,0.00
2023-04-25T01:12:56.652Z,0.00
2023-04-25T01:13:50.502Z,0.00
2023-04-25T01:14:50.378Z,0.00
2023-04-25T01:15:50.298Z,0.00
2023-04-25T01:16:50.627Z,0.00
2023-04-25T01:17:56.606Z,0.00
2023-04-25T01:18:50.287Z,0.00
2023-04-25T01:19:50.268Z,0.00
2023-04-25T01:20:50.247Z,0.00
2023-04-25T01:21:50.235Z,0.00
2023-04-25T01:22:56.539Z,0.00
2023-04-25T01:23:50.403Z,0.00
2023-04-25T01:24:50.253Z,0.00
2023-04-25T01:25:50.208Z,0.00
2023-04-25T01:26:50.144Z,0.00
2023-04-25T01:27:56.411Z,0.00
2023-04-25T01:28:50.369Z,0.00
2023-04-25T01:29:50.321Z,0.00
2023-04-25T01:30:50.161Z,0.00
2023-04-25T01:31:50.143Z,0.00
2023-04-25T01:32:56.372Z,0.00
2023-04-25T01:33:50.358Z,0.00
2023-04-25T01:34:50.094Z,0.00
2023-04-25T01:35:50.067Z,0.00
2023-04-25T01:36:49.999Z,0.00
2023-04-25T01:37:50.013Z,0.00
2023-04-25T01:38:56.271Z,0.00
2023-04-25T01:39:49.987Z,0.00
2023-04-25T01:40:50.008Z,0.00
2023-04-25T01:41:49.961Z,0.00
2023-04-25T01:42:49.965Z,0.00
2023-04-25T01:43:56.257Z,0.00
2023-04-25T01:44:49.897Z,0.00
2023-04-25T01:45:50.025Z,0.00
2023-04-25T01:46:49.938Z,0.00
2023-04-25T01:47:50.089Z,0.00
2023-04-25T01:48:49.920Z,0.00
2023-04-25T01:49:56.098Z,0.00
2023-04-25T01:50:49.826Z,0.00
2023-04-25T01:51:49.801Z,0.00
2023-04-25T01:52:49.863Z,0.00
2023-04-25T01:53:50.235Z,0.00
2023-04-25T01:54:56.131Z,0.00
2023-04-25T01:55:49.805Z,0.00
2023-04-25T01:56:49.786Z,0.00
2023-04-25T01:57:49.783Z,0.00
2023-04-25T01:58:49.744Z,0.00
2023-04-25T01:59:50.747Z,0.00
2023-04-25T02:00:55.978Z,0.00
2023-04-25T02:01:49.684Z,0.00
2023-04-25T02:02:49.761Z,0.00
2023-04-25T02:03:50.101Z,0.00
2023-04-25T02:04:49.735Z,0.00
2023-04-25T02:05:49.635Z,0.00
2023-04-25T02:06:55.986Z,0.00
2023-04-25T02:07:49.613Z,0.00
2023-04-25T02:08:49.716Z,0.00
2023-04-25T02:09:49.619Z,0.00
2023-04-25T02:10:49.571Z,0.00
2023-04-25T02:11:49.592Z,0.00
2023-04-25T02:12:55.792Z,0.00
2023-04-25T02:13:49.797Z,0.00
2023-04-25T02:14:49.548Z,0.00
2023-04-25T02:15:49.652Z,0.00
2023-04-25T02:16:49.643Z,0.00
2023-04-25T02:17:49.509Z,0.00
2023-04-25T02:18:55.730Z,0.00
2023-04-25T02:19:49.431Z,0.00
2023-04-25T02:20:49.458Z,0.00
2023-04-25T02:21:49.427Z,0.00
2023-04-25T02:22:49.501Z,0.00
2023-04-25T02:23:55.659Z,0.00
2023-04-25T02:24:49.375Z,0.00
2023-04-25T02:25:49.397Z,0.00
2023-04-25T02:26:49.389Z,0.00
2023-04-25T02:27:49.383Z,0.00
2023-04-25T02:28:55.592Z,0.00
2023-04-25T02:29:49.368Z,0.00
2023-04-25T02:30:49.316Z,0.00
2023-04-25T02:31:50.326Z,0.00
2023-04-25T02:32:49.351Z,0.00
2023-04-25T02:33:49.375Z,0.00
2023-04-25T02:34:55.580Z,0.00
2023-04-25T02:35:49.248Z,0.00
2023-04-25T02:36:49.224Z,0.00
2023-04-25T02:37:49.400Z,0.00
2023-04-25T02:38:49.232Z,0.00
2023-04-25T02:39:55.450Z,0.00
2023-04-25T02:40:49.183Z,0.00
2023-04-25T02:41:49.193Z,0.00
2023-04-25T02:42:49.164Z,0.00
2023-04-25T02:43:49.447Z,0.00
2023-04-25T02:44:49.106Z,0.00
2023-04-25T02:45:55.430Z,0.00
2023-04-25T02:46:49.208Z,0.00
2023-04-25T02:47:49.198Z,0.00
2023-04-25T02:48:49.058Z,0.00
2023-04-25T02:49:49.076Z,0.00
2023-04-25T02:50:55.305Z,0.00
2023-04-25T02:51:49.045Z,0.00
2023-04-25T02:52:49.002Z,0.00
2023-04-25T02:53:49.204Z,0.00
2023-04-25T02:54:49.009Z,0.00
2023-04-25T02:55:48.982Z,0.00
2023-04-25T02:56:55.211Z,0.00
2023-04-25T02:57:48.945Z,0.00
2023-04-25T02:58:48.973Z,0.00
2023-04-25T02:59:48.938Z,0.00
2023-04-25T03:00:48.972Z,0.00
2023-04-25T03:01:48.920Z,0.00
2023-04-25T03:02:55.230Z,0.00
2023-04-25T03:03:49.239Z,0.00
2023-04-25T03:04:48.914Z,0.00
2023-04-25T03:05:48.857Z,0.00
2023-04-25T03:06:48.876Z,0.00
2023-04-25T03:07:55.155Z,0.00
2023-04-25T03:08:48.809Z,0.00
2023-04-25T03:09:48.819Z,0.00
2023-04-25T03:10:48.827Z,0.00
2023-04-25T03:11:48.788Z,0.00
2023-04-25T03:12:55.073Z,0.00
2023-04-25T03:13:49.071Z,0.00
2023-04-25T03:14:48.808Z,0.00
2023-04-25T03:15:48.731Z,0.00
2023-04-25T03:16:48.797Z,0.00
2023-04-25T03:17:48.745Z,0.00
2023-04-25T03:18:54.915Z,0.00
2023-04-25T03:19:48.718Z,0.00
2023-04-25T03:20:48.671Z,4.00
2023-04-25T03:21:48.695Z,4.00
2023-04-25T03:22:48.647Z,4.00
2023-04-25T03:23:48.869Z,0.00
2023-04-25T03:24:54.934Z,4.00
2023-04-25T03:25:48.619Z,4.00
2023-04-25T03:26:48.608Z,4.00
2023-04-25T03:27:48.563Z,4.00
2023-04-25T03:28:48.562Z,4.00
2023-04-25T03:29:54.814Z,8.00
2023-04-25T03:30:48.541Z,4.00
2023-04-25T03:31:48.602Z,8.00
2023-04-25T03:32:48.546Z,4.00
2023-04-25T03:33:48.745Z,8.00
2023-04-25T03:34:48.485Z,8.00
2023-04-25T03:35:54.725Z,12.00
2023-04-25T03:36:48.487Z,12.00
2023-04-25T03:37:48.513Z,12.00
2023-04-25T03:38:48.545Z,16.00
2023-04-25T03:39:48.408Z,20.00
2023-04-25T03:40:48.420Z,20.00
2023-04-25T03:41:54.719Z,20.00
2023-04-25T03:42:48.408Z,24.00
2023-04-25T03:43:48.634Z,28.00
2023-04-25T03:44:48.372Z,32.00
2023-04-25T03:45:48.397Z,36.00
2023-04-25T03:46:48.382Z,40.00
2023-04-25T03:47:54.634Z,44.00
2023-04-25T03:48:48.326Z,48.00
2023-04-25T03:49:48.313Z,48.00
2023-04-25T03:50:48.334Z,56.00
2023-04-25T03:51:48.322Z,60.00
2023-04-25T03:52:54.497Z,64.00
2023-04-25T03:53:48.339Z,72.00
2023-04-25T03:54:48.253Z,76.00
2023-04-25T03:55:48.284Z,80.00
2023-04-25T03:56:48.199Z,84.00
2023-04-25T03:57:54.464Z,92.00
2023-04-25T03:58:48.199Z,96.00
2023-04-25T03:59:48.206Z,108.00
2023-04-25T04:00:48.191Z,116.00
2023-04-25T04:01:48.317Z,124.00
2023-04-25T04:02:54.560Z,132.00
2023-04-25T04:03:48.369Z,140.00
2023-04-25T04:04:48.367Z,148.00
2023-04-25T04:05:48.188Z,156.00
2023-04-25T04:06:48.068Z,172.00
2023-04-25T04:07:48.090Z,176.00
2023-04-25T04:08:54.429Z,188.00
2023-04-25T04:09:48.087Z,200.00
2023-04-25T04:10:48.024Z,204.00
2023-04-25T04:11:48.051Z,212.00
2023-04-25T04:12:48.019Z,224.00
2023-04-25T04:13:48.182Z,236.00
2023-04-25T04:14:54.232Z,248.00
2023-04-25T04:15:47.976Z,256.00
2023-04-25T04:16:47.965Z,260.00
2023-04-25T04:17:48.037Z,268.00
2023-04-25T04:18:47.924Z,280.00
2023-04-25T04:19:54.632Z,288.00
2023-04-25T04:20:48.009Z,300.00
2023-04-25T04:21:47.907Z,312.00
2023-04-25T04:22:47.991Z,340.00
2023-04-25T04:23:47.988Z,360.00
2023-04-25T04:24:54.114Z,388.00
2023-04-25T04:25:47.850Z,416.00
2023-04-25T04:26:47.845Z,432.00
2023-04-25T04:27:47.836Z,456.00
2023-04-25T04:28:47.832Z,480.00
2023-04-25T04:29:47.789Z,496.00
2023-04-25T04:30:54.089Z,520.00
2023-04-25T04:31:47.847Z,540.00
2023-04-25T04:32:50.101Z,564.00
2023-04-25T04:33:47.752Z,588.00
2023-04-25T04:34:47.708Z,608.00
2023-04-25T04:35:47.715Z,628.00
2023-04-25T04:36:53.948Z,660.00
2023-04-25T04:37:47.677Z,672.00
2023-04-25T04:38:47.680Z,684.00
2023-04-25T04:39:47.711Z,700.00
2023-04-25T04:40:47.678Z,696.00
2023-04-25T04:41:53.899Z,720.00
2023-04-25T04:42:47.662Z,728.00
2023-04-25T04:43:47.779Z,732.00
2023-04-25T04:44:47.750Z,736.00
2023-04-25T04:45:47.572Z,748.00
2023-04-25T04:46:53.833Z,756.00
2023-04-25T04:47:47.585Z,760.00
2023-04-25T04:48:47.533Z,780.00
2023-04-25T04:49:47.563Z,788.00
2023-04-25T04:50:47.484Z,800.00
2023-04-25T04:51:47.540Z,832.00
2023-04-25T04:52:53.719Z,860.00
2023-04-25T04:53:47.472Z,900.00
2023-04-25T04:54:47.492Z,904.00
2023-04-25T04:55:47.434Z,888.00
2023-04-25T04:56:47.447Z,844.00
2023-04-25T04:57:47.442Z,852.00
2023-04-25T04:58:53.649Z,908.00
2023-04-25T04:59:47.513Z,912.00
2023-04-25T05:00:47.466Z,916.00
2023-04-25T05:01:47.364Z,872.00
2023-04-25T05:02:47.493Z,872.00
2023-04-25T05:03:54.209Z,804.00
2023-04-25T05:04:47.375Z,792.00
2023-04-25T05:05:47.306Z,872.00
2023-04-25T05:06:48.955Z,1000.00
2023-04-25T05:07:47.279Z,984.00
2023-04-25T05:08:47.288Z,1016.00
2023-04-25T05:09:53.559Z,980.00
2023-04-25T05:10:47.258Z,848.00
2023-04-25T05:11:47.308Z,780.00
2023-04-25T05:12:47.213Z,824.00
2023-04-25T05:13:47.213Z,760.00
2023-04-25T05:14:53.448Z,784.00
2023-04-25T05:15:47.237Z,844.00
2023-04-25T05:16:47.380Z,904.00
2023-04-25T05:17:47.236Z,780.00
2023-04-25T05:18:47.145Z,700.00
2023-04-25T05:19:47.145Z,728.00
2023-04-25T05:20:53.345Z,808.00
2023-04-25T05:21:47.104Z,852.00
2023-04-25T05:22:47.129Z,1116.00
2023-04-25T05:23:47.064Z,1180.00
2023-04-25T05:24:47.056Z,1072.00
2023-04-25T05:25:47.119Z,848.00
2023-04-25T05:26:53.254Z,952.00
2023-04-25T05:27:47.068Z,1012.00
2023-04-25T05:28:47.006Z,960.00
2023-04-25T05:29:46.998Z,1012.00
2023-04-25T05:30:47.036Z,1096.00
2023-04-25T05:31:53.254Z,1188.00
2023-04-25T05:32:47.026Z,1220.00
2023-04-25T05:33:46.937Z,1216.00
2023-04-25T05:34:46.961Z,1108.00
2023-04-25T05:35:46.937Z,992.00
2023-04-25T05:36:46.965Z,1132.00
2023-04-25T05:37:53.281Z,1412.00
2023-04-25T05:38:46.928Z,1496.00
2023-04-25T05:39:46.966Z,1228.00
2023-04-25T05:40:46.888Z,1268.00
2023-04-25T05:41:46.857Z,1268.00
2023-04-25T05:42:53.107Z,1448.00
2023-04-25T05:43:46.868Z,1596.00
2023-04-25T05:44:46.769Z,1240.00
2023-04-25T05:45:46.798Z,1200.00
2023-04-25T05:46:46.852Z,1376.00
2023-04-25T05:47:53.061Z,1428.00
2023-04-25T05:48:46.743Z,1136.00
2023-04-25T05:49:46.953Z,988.00
2023-04-25T05:50:46.755Z,1080.00
2023-04-25T05:51:46.724Z,1168.00
2023-04-25T05:52:46.693Z,1204.00
2023-04-25T05:53:53.143Z,1512.00
2023-04-25T05:54:46.672Z,1460.00
2023-04-25T05:55:46.658Z,1856.00
2023-04-25T05:56:46.664Z,2088.00
2023-04-25T05:57:46.639Z,1688.00
2023-04-25T05:58:46.687Z,1472.00
2023-04-25T05:59:53.036Z,1624.00
2023-04-25T06:00:46.667Z,1916.00
2023-04-25T06:01:46.540Z,1572.00
2023-04-25T06:02:46.696Z,1244.00
2023-04-25T06:03:46.737Z,1452.00
2023-04-25T06:04:46.653Z,1532.00
2023-04-25T06:05:52.816Z,1560.00
2023-04-25T06:06:46.534Z,1848.00
2023-04-25T06:07:46.566Z,1868.00
2023-04-25T06:08:46.462Z,1868.00
2023-04-25T06:09:46.439Z,2080.00
2023-04-25T06:10:46.447Z,2256.00
2023-04-25T06:11:52.735Z,2092.00
2023-04-25T06:12:46.439Z,2112.00
2023-04-25T06:13:46.449Z,2352.00
2023-04-25T06:14:46.384Z,2504.00
2023-04-25T06:15:46.519Z,2356.00
2023-04-25T06:16:52.768Z,2368.00
2023-04-25T06:17:46.419Z,2780.00
2023-04-25T06:18:46.382Z,2592.00
2023-04-25T06:19:46.371Z,2608.00
2023-04-25T06:20:46.398Z,2872.00
2023-04-25T06:21:46.313Z,2492.00
2023-04-25T06:22:52.571Z,2136.00
2023-04-25T06:23:46.313Z,1948.00
2023-04-25T06:24:46.320Z,2036.00
2023-04-25T06:25:46.224Z,1816.00
2023-04-25T06:26:46.236Z,1940.00
2023-04-25T06:27:46.243Z,2032.00
2023-04-25T06:28:52.469Z,2048.00
2023-04-25T06:29:46.223Z,2212.00
2023-04-25T06:30:46.153Z,1796.00
2023-04-25T06:31:46.181Z,1552.00
2023-04-25T06:32:46.189Z,1528.00
2023-04-25T06:33:46.259Z,1564.00
2023-04-25T06:34:52.429Z,1972.00
2023-04-25T06:35:46.088Z,1612.00
2023-04-25T06:36:46.090Z,1744.00
2023-04-25T06:37:46.108Z,2020.00
2023-04-25T06:38:46.093Z,2472.00
2023-04-25T06:39:46.126Z,2856.00
2023-04-25T06:40:52.355Z,2820.00
2023-04-25T06:41:46.031Z,3060.00
2023-04-25T06:42:45.994Z,2444.00
2023-04-25T06:43:46.276Z,1656.00
2023-04-25T06:44:46.196Z,1548.00
2023-04-25T06:45:52.220Z,1532.00
2023-04-25T06:46:46.031Z,1644.00
2023-04-25T06:47:46.023Z,1340.00
2023-04-25T06:48:45.921Z,1720.00
2023-04-25T06:49:45.943Z,1964.00
2023-04-25T06:50:52.206Z,2164.00
2023-04-25T06:51:45.875Z,1704.00
2023-04-25T06:52:45.884Z,1764.00
2023-04-25T06:53:45.890Z,1524.00
2023-04-25T06:54:45.847Z,1396.00
2023-04-25T06:55:52.144Z,1572.00
2023-04-25T06:56:45.821Z,1848.00
2023-04-25T06:57:45.880Z,2144.00
2023-04-25T06:58:45.827Z,2296.00
2023-04-25T06:59:45.930Z,2484.00
2023-04-25T07:00:45.785Z,2792.00
2023-04-25T07:01:52.009Z,3028.00
2023-04-25T07:02:45.920Z,2864.00
2023-04-25T07:03:46.075Z,2768.00
2023-04-25T07:04:45.907Z,2056.00
2023-04-25T07:05:45.682Z,1812.00
2023-04-25T07:06:52.066Z,1268.00
2023-04-25T07:07:45.708Z,1156.00
2023-04-25T07:08:45.716Z,1064.00
2023-04-25T07:09:45.739Z,1060.00
2023-04-25T07:10:47.332Z,1144.00
2023-04-25T07:11:45.613Z,1484.00
2023-04-25T07:12:51.966Z,1624.00
2023-04-25T07:13:45.637Z,1004.00
2023-04-25T07:14:45.593Z,996.00
2023-04-25T07:15:45.605Z,1088.00
2023-04-25T07:16:45.782Z,1324.00
2023-04-25T07:17:51.868Z,1468.00
2023-04-25T07:18:45.552Z,1372.00
2023-04-25T07:19:45.509Z,1408.00
2023-04-25T07:20:45.555Z,1576.00
2023-04-25T07:21:45.501Z,1796.00
2023-04-25T07:22:52.091Z,2072.00
2023-04-25T07:23:45.505Z,2200.00
2023-04-25T07:24:45.441Z,2496.00
2023-04-25T07:25:45.472Z,2672.00
2023-04-25T07:26:45.535Z,3052.00
2023-04-25T07:27:45.455Z,3440.00
2023-04-25T07:28:51.983Z,3788.00
2023-04-25T07:29:45.427Z,3596.00
2023-04-25T07:30:45.409Z,3612.00
2023-04-25T07:31:45.438Z,3816.00
2023-04-25T07:32:45.389Z,4076.00
2023-04-25T07:33:45.358Z,4496.00
2023-04-25T07:34:51.623Z,5104.00
2023-04-25T07:35:45.325Z,5368.00
2023-04-25T07:36:45.293Z,5236.00
2023-04-25T07:37:45.283Z,4416.00
2023-04-25T07:38:45.340Z,4084.00
2023-04-25T07:39:51.716Z,3688.00
2023-04-25T07:40:45.285Z,3436.00
2023-04-25T07:41:45.228Z,2904.00
2023-04-25T07:42:45.232Z,2620.00
2023-04-25T07:43:45.241Z,2440.00
2023-04-25T07:44:51.414Z,2376.00
2023-04-25T07:45:45.259Z,2416.00
2023-04-25T07:46:45.219Z,2316.00
2023-04-25T07:47:45.214Z,2472.00
2023-04-25T07:48:45.159Z,2596.00
2023-04-25T07:49:45.186Z,2356.00
2023-04-25T07:50:51.352Z,2228.00
2023-04-25T07:51:45.122Z,2340.00
2023-04-25T07:52:45.182Z,2556.00
2023-04-25T07:53:45.201Z,2540.00
2023-04-25T07:54:45.085Z,2528.00
2023-04-25T07:55:51.294Z,2708.00
2023-04-25T07:56:52.263Z,2848.00
2023-04-25T07:57:46.555Z,3192.00
2023-04-25T07:58:45.057Z,3736.00
2023-04-25T07:59:45.006Z,4376.00
2023-04-25T08:00:51.459Z,4892.00
2023-04-25T08:01:44.946Z,5292.00
2023-04-25T08:02:45.046Z,5620.00
2023-04-25T08:03:45.268Z,5692.00
2023-04-25T08:04:45.160Z,5420.00
2023-04-25T08:05:45.095Z,5220.00
2023-04-25T08:06:51.208Z,5296.00
2023-04-25T08:07:44.913Z,5224.00
2023-04-25T08:08:44.906Z,5568.00
2023-04-25T08:09:44.858Z,5488.00
2023-04-25T08:10:44.882Z,5376.00
2023-04-25T08:11:51.102Z,4988.00
2023-04-25T08:12:44.855Z,4784.00
2023-04-25T08:13:44.882Z,5068.00
2023-04-25T08:14:44.822Z,5952.00
2023-04-25T08:15:44.817Z,6872.00
2023-04-25T08:16:44.790Z,7568.00
2023-04-25T08:17:51.048Z,7644.00
2023-04-25T08:18:44.754Z,8172.00
2023-04-25T08:19:44.758Z,8248.00
2023-04-25T08:20:44.904Z,8464.00
2023-04-25T08:21:44.777Z,8376.00
2023-04-25T08:22:50.944Z,8160.00
2023-04-25T08:23:44.699Z,7988.00
2023-04-25T08:24:44.693Z,7884.00
2023-04-25T08:25:44.673Z,7696.00
2023-04-25T08:26:45.670Z,7580.00
2023-04-25T08:27:44.907Z,7688.00
2023-04-25T08:28:51.333Z,7312.00
2023-04-25T08:29:44.615Z,6284.00
2023-04-25T08:30:44.600Z,5652.00
2023-04-25T08:31:44.663Z,5580.00
2023-04-25T08:32:44.618Z,5816.00
2023-04-25T08:33:50.815Z,5720.00
2023-04-25T08:34:44.557Z,5612.00
2023-04-25T08:35:44.525Z,5568.00
2023-04-25T08:36:44.590Z,5164.00
2023-04-25T08:37:44.509Z,5528.00
2023-04-25T08:38:52.569Z,6544.00
2023-04-25T08:39:44.510Z,7072.00
2023-04-25T08:40:44.492Z,7568.00
2023-04-25T08:41:44.558Z,7908.00
2023-04-25T08:42:44.425Z,8236.00
2023-04-25T08:43:50.708Z,8920.00
2023-04-25T08:44:44.411Z,9752.00
2023-04-25T08:45:44.416Z,8792.00
2023-04-25T08:46:44.410Z,10660.00
2023-04-25T08:47:44.412Z,11696.00
2023-04-25T08:48:44.353Z,10488.00
2023-04-25T08:49:50.567Z,13068.00
2023-04-25T08:50:44.323Z,9112.00
2023-04-25T08:51:44.356Z,7620.00
2023-04-25T08:52:44.537Z,7056.00
2023-04-25T08:53:46.217Z,9052.00
2023-04-25T08:54:44.548Z,9252.00
2023-04-25T08:55:50.496Z,7720.00
2023-04-25T08:56:44.256Z,8068.00
2023-04-25T08:57:44.292Z,6480.00
2023-04-25T08:58:44.220Z,11276.00
2023-04-25T08:59:44.213Z,8800.00
2023-04-25T09:00:44.218Z,10368.00
2023-04-25T09:01:50.482Z,9944.00
2023-04-25T09:02:44.669Z,9728.00
2023-04-25T09:03:44.497Z,10188.00
2023-04-25T09:04:44.152Z,6324.00
2023-04-25T09:05:44.141Z,9840.00
2023-04-25T09:06:44.154Z,9832.00
2023-04-25T09:07:50.874Z,9924.00
2023-04-25T09:08:44.071Z,9776.00
2023-04-25T09:09:44.062Z,10076.00
2023-04-25T09:10:44.130Z,10216.00
2023-04-25T09:11:44.062Z,10520.00
2023-04-25T09:12:44.083Z,11244.00
2023-04-25T09:13:50.598Z,11296.00
2023-04-25T09:14:44.078Z,11128.00
2023-04-25T09:15:44.156Z,11064.00
2023-04-25T09:16:44.016Z,12712.00
2023-04-25T09:17:44.047Z,11820.00
2023-04-25T09:18:50.268Z,11676.00
2023-04-25T09:19:43.941Z,11636.00
2023-04-25T09:20:59.526Z,12408.00
2023-04-25T09:21:46.602Z,12804.00
2023-04-25T09:22:43.940Z,11724.00
2023-04-25T09:23:50.397Z,12352.00
2023-04-25T09:24:43.909Z,12656.00
2023-04-25T09:25:43.924Z,13684.00
2023-04-25T09:26:43.855Z,15040.00
2023-04-25T09:27:43.872Z,13300.00
2023-04-25T09:28:43.838Z,9600.00
2023-04-25T09:29:50.069Z,10044.00
2023-04-25T09:30:43.793Z,8680.00
2023-04-25T09:31:43.863Z,8060.00
2023-04-25T09:32:43.900Z,10204.00
2023-04-25T09:33:43.835Z,14132.00
2023-04-25T09:34:43.785Z,14188.00
2023-04-25T09:35:50.049Z,11740.00
2023-04-25T09:36:43.877Z,8904.00
2023-04-25T09:37:44.576Z,7432.00
2023-04-25T09:38:43.841Z,7048.00
2023-04-25T09:39:43.709Z,8020.00
2023-04-25T09:40:49.925Z,9000.00
2023-04-25T09:41:43.679Z,8524.00
2023-04-25T09:42:43.695Z,7744.00
2023-04-25T09:43:43.625Z,7508.00
2023-04-25T09:44:43.633Z,7336.00
2023-04-25T09:45:49.887Z,7532.00
2023-04-25T09:46:43.739Z,8276.00
2023-04-25T09:47:43.593Z,9940.00
2023-04-25T09:48:43.636Z,10396.00
2023-04-25T09:49:43.563Z,9204.00
2023-04-25T09:50:43.545Z,8268.00
2023-04-25T09:51:49.868Z,7668.00
2023-04-25T09:52:43.525Z,7828.00
2023-04-25T09:53:43.570Z,10240.00
2023-04-25T09:54:43.512Z,11508.00
2023-04-25T09:55:43.479Z,11064.00
2023-04-25T09:56:43.501Z,7808.00
2023-04-25T09:57:49.713Z,7024.00
2023-04-25T09:58:43.458Z,7580.00
2023-04-25T09:59:43.427Z,10460.00
2023-04-25T10:00:43.476Z,21472.00
2023-04-25T10:01:43.463Z,16640.00
2023-04-25T10:02:49.823Z,13576.00
2023-04-25T10:03:43.672Z,8728.00
2023-04-25T10:04:43.474Z,8640.00
2023-04-25T10:05:43.393Z,8172.00
2023-04-25T10:06:43.354Z,8124.00
2023-04-25T10:07:43.368Z,11288.00
2023-04-25T10:08:49.661Z,8676.00
2023-04-25T10:09:43.333Z,7840.00
2023-04-25T10:10:43.286Z,7084.00
2023-04-25T10:11:43.262Z,6424.00
2023-04-25T10:12:43.285Z,6392.00
2023-04-25T10:13:43.297Z,6684.00
2023-04-25T10:14:49.510Z,7008.00
2023-04-25T10:15:43.243Z,7504.00
2023-04-25T10:16:43.233Z,6844.00
2023-04-25T10:17:43.229Z,6008.00
2023-04-25T10:18:43.177Z,6012.00
2023-04-25T10:19:49.494Z,6116.00
2023-04-25T10:20:43.168Z,6128.00
2023-04-25T10:21:43.230Z,6348.00
2023-04-25T10:22:43.171Z,6788.00
2023-04-25T10:23:43.198Z,7128.00
2023-04-25T10:24:49.588Z,8176.00
2023-04-25T10:25:43.168Z,8844.00
2023-04-25T10:26:43.102Z,8636.00
2023-04-25T10:27:43.147Z,8704.00
2023-04-25T10:28:43.072Z,9076.00
2023-04-25T10:29:43.066Z,7996.00
2023-04-25T10:30:49.399Z,8000.00
2023-04-25T10:31:43.158Z,8368.00
2023-04-25T10:32:43.023Z,8804.00
2023-04-25T10:33:43.069Z,7904.00
2023-04-25T10:34:42.991Z,7980.00
2023-04-25T10:35:43.028Z,6676.00
2023-04-25T10:36:49.203Z,6144.00
2023-04-25T10:37:42.953Z,6440.00
2023-04-25T10:38:42.942Z,6344.00
2023-04-25T10:39:43.036Z,6288.00
2023-04-25T10:40:42.919Z,6336.00
2023-04-25T10:41:42.925Z,6364.00
2023-04-25T10:42:49.145Z,6620.00
2023-04-25T10:43:42.906Z,6656.00
2023-04-25T10:44:42.871Z,7552.00
2023-04-25T10:45:42.914Z,8596.00
2023-04-25T10:46:42.888Z,9116.00
2023-04-25T10:47:42.872Z,9904.00
2023-04-25T10:48:49.106Z,10480.00
2023-04-25T10:49:42.831Z,9532.00
2023-04-25T10:50:42.812Z,14272.00
2023-04-25T10:51:54.273Z,6768.00
2023-04-25T10:52:44.271Z,7416.00
2023-04-25T10:53:49.357Z,9168.00
2023-04-25T10:54:42.748Z,11576.00
2023-04-25T10:55:42.711Z,15424.00
2023-04-25T10:56:42.822Z,15040.00
2023-04-25T10:57:42.685Z,12504.00
2023-04-25T10:58:51.178Z,10896.00
2023-04-25T10:59:42.776Z,10288.00
2023-04-25T11:00:56.715Z,10124.00
2023-04-25T11:01:44.295Z,10596.00
2023-04-25T11:02:42.733Z,8720.00
2023-04-25T11:03:42.726Z,6676.00
2023-04-25T11:04:48.910Z,5008.00
2023-04-25T11:05:51.317Z,4356.00
2023-04-25T11:06:44.093Z,4328.00
2023-04-25T11:07:43.239Z,4184.00
2023-04-25T11:08:42.557Z,4088.00
2023-04-25T11:09:48.801Z,3552.00
2023-04-25T11:10:42.577Z,3048.00
2023-04-25T11:11:42.518Z,2772.00
2023-04-25T11:12:42.549Z,2584.00
2023-04-25T11:13:42.525Z,2556.00
2023-04-25T11:14:42.594Z,2548.00
2023-04-25T11:15:54.774Z,2572.00
2023-04-25T11:16:44.215Z,2716.00
2023-04-25T11:17:42.531Z,3096.00
2023-04-25T11:18:42.467Z,3724.00
2023-04-25T11:19:42.485Z,4212.00
2023-04-25T11:20:48.681Z,4036.00
2023-04-25T11:21:42.454Z,3524.00
2023-04-25T11:22:42.345Z,3604.00
2023-04-25T11:23:42.371Z,4024.00
2023-04-25T11:24:42.358Z,3988.00
2023-04-25T11:25:42.377Z,4060.00
2023-04-25T11:26:48.578Z,4044.00
2023-04-25T11:27:42.296Z,3940.00
2023-04-25T11:28:42.377Z,4112.00
2023-04-25T11:29:42.306Z,4188.00
2023-04-25T11:30:42.362Z,4300.00
2023-04-25T11:31:42.337Z,4348.00
2023-04-25T11:32:48.634Z,4444.00
2023-04-25T11:33:42.266Z,4680.00
2023-04-25T11:34:42.244Z,5020.00
2023-04-25T11:35:42.264Z,5376.00
2023-04-25T11:36:42.176Z,5828.00
2023-04-25T11:37:42.189Z,6484.00
2023-04-25T11:38:48.419Z,6696.00
2023-04-25T11:39:42.188Z,6932.00
2023-04-25T11:40:42.171Z,6988.00
2023-04-25T11:41:42.334Z,7028.00
2023-04-25T11:42:42.125Z,7088.00
2023-04-25T11:43:48.328Z,7024.00
2023-04-25T11:44:42.118Z,7076.00
2023-04-25T11:45:42.317Z,7184.00
2023-04-25T11:46:42.076Z,7304.00
2023-04-25T11:47:42.144Z,7420.00
2023-04-25T11:48:48.652Z,7344.00
2023-04-25T11:49:42.048Z,7228.00
2023-04-25T11:50:42.035Z,6964.00
2023-04-25T11:51:41.970Z,7116.00
2023-04-25T11:52:42.069Z,7076.00
2023-04-25T11:53:48.248Z,7596.00
2023-04-25T11:54:41.979Z,8016.00
2023-04-25T11:55:41.977Z,8760.00
2023-04-25T11:56:41.910Z,9372.00
2023-04-25T11:57:41.942Z,9668.00
2023-04-25T11:58:48.154Z,9500.00
2023-04-25T11:59:41.906Z,9884.00
2023-04-25T12:00:41.916Z,10464.00
2023-04-25T12:01:43.379Z,10668.00
2023-04-25T12:02:41.993Z,11252.00
2023-04-25T12:03:48.426Z,11932.00
2023-04-25T12:04:42.307Z,12364.00
2023-04-25T12:05:42.028Z,11108.00
2023-04-25T12:06:41.893Z,11608.00
2023-04-25T12:07:41.867Z,11452.00
2023-04-25T12:08:41.824Z,10744.00
2023-04-25T12:09:48.053Z,10120.00
2023-04-25T12:10:41.759Z,10012.00
2023-04-25T12:11:41.743Z,10192.00
2023-04-25T12:12:41.718Z,10744.00
2023-04-25T12:13:41.698Z,11164.00
2023-04-25T12:14:41.717Z,11516.00
2023-04-25T12:15:48.047Z,13508.00
2023-04-25T12:16:41.761Z,11856.00
2023-04-25T12:17:41.703Z,16768.00
2023-04-25T12:18:42.742Z,16416.00
2023-04-25T12:19:41.912Z,13384.00
2023-04-25T12:20:41.637Z,13720.00
2023-04-25T12:21:57.201Z,15200.00
2023-04-25T12:22:43.118Z,14664.00
2023-04-25T12:23:41.609Z,14096.00
2023-04-25T12:24:41.622Z,24416.00
2023-04-25T12:25:41.604Z,14568.00
2023-04-25T12:26:41.550Z,15136.00
2023-04-25T12:27:47.837Z,17536.00